Time;durP1;ratioP1;P1;durP2;ratioP2;P2;SDS_P1;SDS_P2;PMS_P1;PMS_P2;Temp;Humidity;BMP_temperature;BMP_pressure;BME280_temperature;BME280_humidity;BME280_pressure;Samples;Min_cycle;Max_cycle;Signal;HPM_P1;HPM_P2
2022/07/13 00:00:40;;;;;;;1.83;0.85;;;;;;;;;;4977252;28;20041;-71
2022/07/13 00:03:05;;;;;;;0.90;0.85;;;;;;;;;;4977507;28;20062;-70
2022/07/13 00:05:30;;;;;;;1.85;0.80;;;;;;;;;;4977616;28;20027;-71
2022/07/13 00:07:58;;;;;;;1.30;0.98;;;;;;;;;;4974152;28;20038;-71
2022/07/13 00:10:23;;;;;;;1.77;1.13;;;;;;;;;;4977056;28;20031;-70
2022/07/13 00:12:49;;;;;;;0.52;0.52;;;;;;;;;;4977035;28;20034;-71
2022/07/13 00:15:16;;;;;;;1.58;0.95;;;;;;;;;;4975899;28;20113;-71
2022/07/13 00:17:41;;;;;;;2.75;1.13;;;;;;;;;;4977668;28;20027;-71
2022/07/13 00:20:07;;;;;;;1.23;1.02;;;;;;;;;;4975609;28;20041;-71
2022/07/13 00:22:35;;;;;;;1.40;0.70;;;;;;;;;;4973550;28;20030;-71
2022/07/13 00:25:03;;;;;;;1.95;0.95;;;;;;;;;;4976589;28;20042;-71
2022/07/13 00:27:28;;;;;;;1.83;0.85;;;;;;;;;;4976952;28;20026;-71
2022/07/13 00:29:54;;;;;;;0.82;0.75;;;;;;;;;;4976726;28;20356;-71
2022/07/13 00:32:19;;;;;;;2.28;0.90;;;;;;;;;;4976950;28;20045;-71
2022/07/13 00:34:45;;;;;;;0.50;0.50;;;;;;;;;;4976778;28;20019;-71
2022/07/13 00:37:13;;;;;;;1.90;0.80;;;;;;;;;;4975346;28;20177;-71
2022/07/13 00:39:38;;;;;;;1.20;0.63;;;;;;;;;;4976443;28;20081;-71
2022/07/13 00:42:06;;;;;;;0.65;0.50;;;;;;;;;;4975755;28;20034;-71
2022/07/13 00:44:34;;;;;;;1.17;0.85;;;;;;;;;;4976891;28;20058;-71
2022/07/13 00:46:59;;;;;;;1.23;0.88;;;;;;;;;;4976673;28;20318;-71
2022/07/13 00:49:25;;;;;;;0.95;0.75;;;;;;;;;;4975765;28;20077;-71
2022/07/13 00:51:50;;;;;;;0.90;0.70;;;;;;;;;;4974808;28;20110;-71
2022/07/13 00:54:18;;;;;;;2.92;1.55;;;;;;;;;;4975455;28;20035;-71
2022/07/13 00:56:47;;;;;;;0.43;0.43;;;;;;;;;;4956826;28;20027;-71
2022/07/13 00:59:15;;;;;;;2.15;1.95;;;;;;;;;;4975689;28;20411;-72
2022/07/13 01:01:41;;;;;;;0.63;0.60;;;;;;;;;;4974860;28;20034;-71
2022/07/13 01:04:11;;;;;;;1.23;1.13;;;;;;;;;;4974639;28;20034;-71
2022/07/13 01:06:37;;;;;;;1.05;0.80;;;;;;;;;;4958468;28;20521;-72
2022/07/13 01:09:02;;;;;;;2.05;1.00;;;;;;;;;;4973741;28;20023;-71
2022/07/13 01:11:29;;;;;;;2.17;1.50;;;;;;;;;;4976012;28;20507;-71
2022/07/13 01:13:55;;;;;;;1.17;0.93;;;;;;;;;;4975319;28;20472;-71
2022/07/13 01:16:21;;;;;;;1.20;1.10;;;;;;;;;;4974885;28;20100;-72
2022/07/13 01:18:46;;;;;;;1.17;0.88;;;;;;;;;;4975428;28;20452;-72
2022/07/13 01:21:12;;;;;;;1.08;0.88;;;;;;;;;;4972756;28;20118;-71
2022/07/13 01:23:41;;;;;;;1.02;0.73;;;;;;;;;;4972958;28;20037;-71
2022/07/13 01:26:07;;;;;;;1.35;0.85;;;;;;;;;;4981557;28;20031;-72
2022/07/13 01:28:32;;;;;;;1.20;0.80;;;;;;;;;;4961716;28;20046;-72
2022/07/13 01:30:58;;;;;;;4.35;1.23;;;;;;;;;;4974260;28;20105;-72
2022/07/13 01:33:23;;;;;;;1.30;1.20;;;;;;;;;;4975437;28;20381;-72
2022/07/13 01:35:48;;;;;;;0.80;0.80;;;;;;;;;;4974208;28;20413;-72
2022/07/13 01:38:14;;;;;;;0.70;0.70;;;;;;;;;;4974552;28;20106;-72
2022/07/13 01:40:43;;;;;;;1.80;0.88;;;;;;;;;;4973879;28;20014;-72
2022/07/13 01:43:09;;;;;;;2.08;1.20;;;;;;;;;;4975115;28;20054;-72
2022/07/13 01:45:34;;;;;;;0.82;0.82;;;;;;;;;;4973913;28;20014;-72
2022/07/13 01:47:59;;;;;;;1.55;0.82;;;;;;;;;;4975036;28;20085;-72
2022/07/13 01:50:30;;;;;;;2.85;1.13;;;;;;;;;;4973356;28;20026;-72
2022/07/13 01:52:58;;;;;;;1.50;1.40;;;;;;;;;;4974589;28;20054;-72
2022/07/13 01:55:24;;;;;;;1.25;0.93;;;;;;;;;;4975132;28;20035;-72
2022/07/13 01:57:56;;;;;;;1.52;0.93;;;;;;;;;;4974326;28;20384;-72
2022/07/13 02:00:21;;;;;;;1.63;0.68;;;;;;;;;;4972405;28;20038;-71
2022/07/13 02:02:48;;;;;;;2.08;0.80;;;;;;;;;;4972563;28;20030;-71
2022/07/13 02:05:17;;;;;;;2.85;0.93;;;;;;;;;;4973906;28;20019;-71
2022/07/13 02:07:42;;;;;;;1.33;0.70;;;;;;;;;;4974247;28;20034;-71
2022/07/13 02:10:11;;;;;;;3.83;0.95;;;;;;;;;;4973659;28;20314;-71
2022/07/13 02:12:37;;;;;;;1.30;0.88;;;;;;;;;;4973985;28;20027;-71
2022/07/13 02:15:02;;;;;;;1.17;1.02;;;;;;;;;;4974154;28;20559;-71
2022/07/13 02:17:30;;;;;;;2.75;1.45;;;;;;;;;;4973713;28;20500;-72
2022/07/13 02:19:56;;;;;;;1.95;1.27;;;;;;;;;;4974100;28;20027;-72
2022/07/13 02:22:26;;;;;;;0.85;0.75;;;;;;;;;;4974733;28;20030;-71
2022/07/13 02:24:51;;;;;;;0.85;0.85;;;;;;;;;;4974508;28;20437;-72
2022/07/13 02:27:19;;;;;;;0.70;0.65;;;;;;;;;;4972466;28;20030;-72
2022/07/13 02:29:44;;;;;;;4.68;1.58;;;;;;;;;;4972543;28;20022;-71
2022/07/13 02:32:12;;;;;;;3.25;1.63;;;;;;;;;;4974239;28;20035;-71
2022/07/13 02:34:38;;;;;;;2.63;1.30;;;;;;;;;;4973929;28;20527;-71
2022/07/13 02:37:03;;;;;;;1.58;1.23;;;;;;;;;;4974936;28;20066;-71
2022/07/13 02:39:31;;;;;;;1.05;0.98;;;;;;;;;;4974090;28;20117;-71
2022/07/13 02:41:56;;;;;;;1.27;1.13;;;;;;;;;;4974496;28;20027;-71
2022/07/13 02:44:22;;;;;;;1.35;0.70;;;;;;;;;;4975176;28;20109;-72
2022/07/13 02:46:49;;;;;;;1.95;1.17;;;;;;;;;;4968805;28;20026;-71
2022/07/13 02:49:15;;;;;;;3.40;1.42;;;;;;;;;;4972352;28;20078;-71
2022/07/13 02:51:42;;;;;;;5.43;1.30;;;;;;;;;;4973983;28;20058;-72
2022/07/13 02:54:10;;;;;;;1.15;0.95;;;;;;;;;;4974174;28;20070;-71
2022/07/13 02:56:36;;;;;;;3.03;1.45;;;;;;;;;;4974382;28;20110;-72
2022/07/13 02:59:01;;;;;;;1.25;0.93;;;;;;;;;;4973460;28;20134;-72
2022/07/13 03:01:26;;;;;;;1.42;0.80;;;;;;;;;;4974235;28;20064;-71
2022/07/13 03:03:52;;;;;;;1.15;0.88;;;;;;;;;;4972400;28;20042;-71
2022/07/13 03:06:17;;;;;;;1.25;0.80;;;;;;;;;;4974025;28;20476;-72
2022/07/13 03:08:45;;;;;;;2.20;1.30;;;;;;;;;;4972533;28;21693;-71
2022/07/13 03:11:10;;;;;;;0.93;0.80;;;;;;;;;;4974628;28;20519;-71
2022/07/13 03:13:35;;;;;;;1.90;1.30;;;;;;;;;;4973556;28;20089;-71
2022/07/13 03:16:00;;;;;;;3.00;2.08;;;;;;;;;;4973241;28;20027;-71
2022/07/13 03:18:26;;;;;;;1.13;0.80;;;;;;;;;;4970913;28;20473;-70
2022/07/13 03:20:51;;;;;;;1.70;1.10;;;;;;;;;;4972279;28;20037;-71
2022/07/13 03:23:21;;;;;;;0.90;0.68;;;;;;;;;;4974180;28;20081;-71
2022/07/13 03:25:47;;;;;;;2.92;1.33;;;;;;;;;;4972353;28;20069;-71
2022/07/13 03:28:12;;;;;;;0.82;0.82;;;;;;;;;;4970213;28;20134;-71
2022/07/13 03:30:40;;;;;;;2.35;1.05;;;;;;;;;;4977267;28;20030;-71
2022/07/13 03:33:07;;;;;;;0.98;0.75;;;;;;;;;;4977448;28;20027;-71
2022/07/13 03:35:36;;;;;;;2.28;0.93;;;;;;;;;;4972078;28;20138;-71
2022/07/13 03:38:01;;;;;;;0.80;0.80;;;;;;;;;;4977236;28;20022;-71
2022/07/13 03:40:26;;;;;;;2.22;1.15;;;;;;;;;;4975403;28;20036;-72
2022/07/13 03:42:52;;;;;;;0.50;0.50;;;;;;;;;;4974875;28;20989;-72
2022/07/13 03:45:22;;;;;;;1.77;1.00;;;;;;;;;;4975231;28;20071;-72
2022/07/13 03:47:49;;;;;;;2.88;1.67;;;;;;;;;;4976374;28;20413;-72
2022/07/13 03:50:15;;;;;;;1.55;1.08;;;;;;;;;;4976534;28;20059;-72
2022/07/13 03:52:40;;;;;;;1.52;1.17;;;;;;;;;;4977319;28;20037;-72
2022/07/13 03:55:07;;;;;;;1.45;1.35;;;;;;;;;;4975122;28;20019;-72
2022/07/13 03:57:33;;;;;;;1.70;0.77;;;;;;;;;;4976522;28;20030;-72
2022/07/13 03:59:58;;;;;;;0.93;0.90;;;;;;;;;;4976274;28;20026;-72
2022/07/13 04:02:24;;;;;;;0.98;0.90;;;;;;;;;;4972683;28;20029;-72
2022/07/13 04:04:49;;;;;;;2.92;1.50;;;;;;;;;;4973823;28;20029;-71
2022/07/13 04:07:15;;;;;;;1.90;1.40;;;;;;;;;;4975532;28;20023;-72
2022/07/13 04:09:42;;;;;;;1.40;1.17;;;;;;;;;;4976208;28;20396;-72
2022/07/13 04:12:08;;;;;;;4.88;1.05;;;;;;;;;;4973078;28;20117;-72
2022/07/13 04:14:33;;;;;;;1.10;0.63;;;;;;;;;;4974555;28;20508;-72
2022/07/13 04:16:59;;;;;;;1.48;0.98;;;;;;;;;;4977309;28;20345;-72
2022/07/13 04:19:24;;;;;;;7.03;2.13;;;;;;;;;;4975199;28;20360;-72
2022/07/13 04:21:49;;;;;;;1.10;0.85;;;;;;;;;;4975658;28;20034;-71
2022/07/13 04:24:15;;;;;;;3.42;1.10;;;;;;;;;;4976604;28;20102;-72
2022/07/13 04:26:42;;;;;;;0.65;0.52;;;;;;;;;;4975541;28;20045;-72
2022/07/13 04:29:08;;;;;;;0.93;0.65;;;;;;;;;;4976683;28;20365;-72
2022/07/13 04:31:33;;;;;;;1.33;0.98;;;;;;;;;;4975992;28;20030;-71
2022/07/13 04:33:58;;;;;;;1.42;0.68;;;;;;;;;;4976370;28;20034;-71
2022/07/13 04:36:24;;;;;;;0.57;0.50;;;;;;;;;;4975011;28;20347;-72
2022/07/13 04:38:49;;;;;;;1.25;0.52;;;;;;;;;;4973574;28;20075;-72
2022/07/13 04:41:14;;;;;;;0.85;0.80;;;;;;;;;;4972758;28;20026;-72
2022/07/13 04:43:45;;;;;;;0.57;0.50;;;;;;;;;;4974721;28;20117;-72
2022/07/13 04:46:14;;;;;;;1.98;0.90;;;;;;;;;;4975846;28;20037;-72
2022/07/13 04:48:39;;;;;;;1.27;0.80;;;;;;;;;;4975988;28;20396;-72
2022/07/13 04:51:05;;;;;;;1.08;0.95;;;;;;;;;;4976463;28;20031;-72
2022/07/13 04:53:31;;;;;;;4.80;1.95;;;;;;;;;;4976245;28;20158;-72
2022/07/13 04:55:58;;;;;;;1.17;0.70;;;;;;;;;;4974881;28;20078;-72
2022/07/13 04:58:24;;;;;;;1.00;0.88;;;;;;;;;;4974933;28;20038;-72
2022/07/13 05:00:54;;;;;;;0.57;0.57;;;;;;;;;;4975891;28;20045;-72
2022/07/13 05:03:19;;;;;;;1.98;0.70;;;;;;;;;;4976061;28;20023;-72
2022/07/13 05:05:48;;;;;;;0.63;0.60;;;;;;;;;;4975463;28;20093;-72
2022/07/13 05:08:13;;;;;;;2.55;0.80;;;;;;;;;;4976331;28;20035;-72
2022/07/13 05:10:43;;;;;;;2.00;0.70;;;;;;;;;;4975917;28;20042;-72
2022/07/13 05:13:08;;;;;;;0.65;0.60;;;;;;;;;;4976898;28;20041;-72
2022/07/13 05:15:34;;;;;;;0.75;0.63;;;;;;;;;;4975575;28;20030;-72
2022/07/13 05:17:59;;;;;;;0.60;0.60;;;;;;;;;;4975973;28;20106;-72
2022/07/13 05:20:24;;;;;;;0.98;0.40;;;;;;;;;;4975811;28;20169;-70
2022/07/13 05:22:50;;;;;;;0.35;0.35;;;;;;;;;;4975974;28;20058;-72
2022/07/13 05:25:20;;;;;;;1.10;0.60;;;;;;;;;;4971530;28;20019;-71
2022/07/13 05:27:49;;;;;;;0.63;0.47;;;;;;;;;;4975146;28;20037;-70
2022/07/13 05:30:16;;;;;;;0.50;0.30;;;;;;;;;;4975721;28;20086;-71
2022/07/13 05:32:45;;;;;;;0.20;0.20;;;;;;;;;;4974431;28;20033;-71
2022/07/13 05:35:13;;;;;;;0.82;0.73;;;;;;;;;;4975065;28;20023;-70
2022/07/13 05:37:38;;;;;;;2.60;0.85;;;;;;;;;;4974857;28;20026;-70
2022/07/13 05:40:04;;;;;;;0.30;0.30;;;;;;;;;;4970066;28;20058;-71
2022/07/13 05:42:30;;;;;;;1.10;0.38;;;;;;;;;;4964622;28;20057;-71
2022/07/13 05:44:58;;;;;;;0.50;0.43;;;;;;;;;;4976142;28;20352;-70
2022/07/13 05:47:25;;;;;;;0.63;0.47;;;;;;;;;;4973091;28;20069;-70
2022/07/13 05:49:51;;;;;;;1.08;0.30;;;;;;;;;;4973893;28;20154;-70
2022/07/13 05:52:16;;;;;;;1.50;0.70;;;;;;;;;;4974410;28;20465;-71
2022/07/13 05:54:41;;;;;;;2.55;1.05;;;;;;;;;;4980988;28;20048;-70
2022/07/13 05:57:09;;;;;;;2.63;1.00;;;;;;;;;;4976254;28;20030;-71
2022/07/13 05:59:37;;;;;;;1.92;0.85;;;;;;;;;;4973398;28;20035;-71
2022/07/13 06:02:04;;;;;;;0.93;0.60;;;;;;;;;;4973442;28;20053;-71
2022/07/13 06:04:32;;;;;;;0.32;0.32;;;;;;;;;;4975520;28;20026;-71
2022/07/13 06:06:57;;;;;;;2.03;0.50;;;;;;;;;;4972459;28;20022;-72
2022/07/13 06:09:25;;;;;;;0.82;0.43;;;;;;;;;;4973459;28;20037;-71
2022/07/13 06:11:52;;;;;;;0.25;0.15;;;;;;;;;;4969572;28;20026;-72
2022/07/13 06:14:18;;;;;;;0.88;0.80;;;;;;;;;;4969305;28;20026;-72
2022/07/13 06:16:44;;;;;;;0.45;0.45;;;;;;;;;;4973481;28;20605;-72
2022/07/13 06:19:14;;;;;;;0.57;0.55;;;;;;;;;;4974236;28;20106;-72
2022/07/13 06:21:41;;;;;;;1.92;1.10;;;;;;;;;;4963862;28;20023;-72
2022/07/13 06:24:07;;;;;;;0.35;0.32;;;;;;;;;;4970415;28;20038;-72
2022/07/13 06:26:32;;;;;;;0.68;0.50;;;;;;;;;;4967505;28;20034;-72
2022/07/13 06:29:00;;;;;;;0.80;0.43;;;;;;;;;;4974689;28;20035;-71
2022/07/13 06:31:28;;;;;;;1.27;0.82;;;;;;;;;;4974875;28;20041;-72
2022/07/13 06:33:54;;;;;;;0.63;0.20;;;;;;;;;;4973670;28;20035;-72
2022/07/13 06:36:19;;;;;;;0.43;0.20;;;;;;;;;;5010579;23;20042;-72
2022/07/13 06:38:49;;;;;;;0.95;0.50;;;;;;;;;;4973420;28;20035;-72
2022/07/13 06:41:17;;;;;;;0.70;0.35;;;;;;;;;;4973798;28;20027;-73
2022/07/13 06:43:42;;;;;;;0.35;0.30;;;;;;;;;;4974061;28;20062;-72
2022/07/13 06:46:08;;;;;;;0.65;0.50;;;;;;;;;;4965037;28;20427;-72
2022/07/13 06:48:35;;;;;;;0.65;0.65;;;;;;;;;;4969778;28;20038;-72
2022/07/13 06:51:01;;;;;;;1.65;0.80;;;;;;;;;;4971324;28;20119;-72
2022/07/13 06:53:26;;;;;;;1.15;0.68;;;;;;;;;;4973679;28;20026;-72
2022/07/13 06:55:54;;;;;;;0.88;0.85;;;;;;;;;;4973012;28;20381;-73
2022/07/13 06:58:23;;;;;;;1.50;0.90;;;;;;;;;;4971552;28;20018;-72
2022/07/13 07:00:48;;;;;;;3.35;1.80;;;;;;;;;;4969922;28;20027;-73
2022/07/13 07:03:14;;;;;;;0.98;0.68;;;;;;;;;;4975103;28;20384;-72
2022/07/13 07:05:45;;;;;;;1.00;0.43;;;;;;;;;;4975336;28;20417;-72
2022/07/13 07:08:11;;;;;;;2.05;1.33;;;;;;;;;;4976572;28;20035;-73
2022/07/13 07:10:37;;;;;;;1.92;1.10;;;;;;;;;;4981091;28;20037;-72
2022/07/13 07:13:02;;;;;;;0.22;0.22;;;;;;;;;;4972203;28;20109;-72
2022/07/13 07:15:27;;;;;;;5.82;1.77;;;;;;;;;;4969032;28;20033;-72
2022/07/13 07:17:53;;;;;;;5.57;1.05;;;;;;;;;;4978129;28;20050;-72
2022/07/13 07:20:20;;;;;;;2.40;0.88;;;;;;;;;;4977423;28;20035;-72
2022/07/13 07:22:48;;;;;;;2.80;1.45;;;;;;;;;;4979995;28;20034;-72
2022/07/13 07:25:25;;;;;;;1.67;1.05;;;;;;;;;;4975583;28;20018;-72
2022/07/13 07:27:51;;;;;;;2.20;1.38;;;;;;;;;;4978232;28;20022;-72
2022/07/13 07:30:16;;;;;;;8.00;3.63;;;;;;;;;;4977934;28;20030;-72
2022/07/13 07:32:45;;;;;;;3.08;0.35;;;;;;;;;;4977565;28;20926;-72
2022/07/13 07:35:10;;;;;;;0.70;0.45;;;;;;;;;;4978275;28;20034;-72
2022/07/13 07:37:38;;;;;;;0.82;0.73;;;;;;;;;;4972731;28;20045;-72
2022/07/13 07:40:04;;;;;;;0.93;0.50;;;;;;;;;;4972163;28;20031;-72
2022/07/13 07:42:30;;;;;;;1.65;0.65;;;;;;;;;;4977017;28;20468;-72
2022/07/13 07:44:56;;;;;;;0.82;0.80;;;;;;;;;;4976339;28;20194;-72
2022/07/13 07:47:25;;;;;;;0.40;0.35;;;;;;;;;;4977127;28;20019;-72
2022/07/13 07:49:54;;;;;;;1.00;0.70;;;;;;;;;;4978354;28;20425;-86
2022/07/13 07:52:23;;;;;;;0.40;0.40;;;;;;;;;;4968825;28;20038;-85
2022/07/13 07:54:51;;;;;;;0.80;0.57;;;;;;;;;;4960089;28;20038;-85
2022/07/13 07:57:18;;;;;;;0.47;0.47;;;;;;;;;;4965429;28;20027;-86
2022/07/13 07:59:44;;;;;;;0.20;0.20;;;;;;;;;;4970816;28;20042;-86
2022/07/13 08:02:09;;;;;;;1.00;0.60;;;;;;;;;;4963355;28;20027;-85
2022/07/13 08:04:35;;;;;;;2.30;0.95;;;;;;;;;;4965179;28;20027;-89
2022/07/13 08:07:03;;;;;;;0.32;0.32;;;;;;;;;;4979140;28;20117;-88
2022/07/13 08:09:28;;;;;;;0.30;0.30;;;;;;;;;;4963370;28;20089;-85
2022/07/13 08:11:54;;;;;;;0.45;0.25;;;;;;;;;;4950878;28;20031;-87
2022/07/13 08:14:21;;;;;;;1.02;0.57;;;;;;;;;;4974527;28;20062;-86
2022/07/13 08:16:46;;;;;;;0.73;0.52;;;;;;;;;;4961054;28;20061;-87
2022/07/13 08:19:11;;;;;;;0.45;0.28;;;;;;;;;;4975214;28;20413;-83
2022/07/13 08:21:37;;;;;;;0.98;0.50;;;;;;;;;;4956283;28;20035;-87
2022/07/13 08:24:03;;;;;;;2.10;0.90;;;;;;;;;;4951627;28;20070;-80
2022/07/13 08:26:29;;;;;;;2.67;0.77;;;;;;;;;;4952043;28;20023;-86
2022/07/13 08:28:59;;;;;;;1.05;0.60;;;;;;;;;;4955323;28;20153;-87
2022/07/13 08:31:25;;;;;;;2.55;0.80;;;;;;;;;;4947567;28;20105;-83
2022/07/13 08:39:20;;;;;;;3.92;1.33;;;;;;;;;;4975547;28;20495;-87
2022/07/13 08:41:46;;;;;;;0.50;0.50;;;;;;;;;;4959655;28;20039;-83
2022/07/13 08:44:12;;;;;;;0.95;0.63;;;;;;;;;;4944638;28;20191;-86
2022/07/13 08:46:38;;;;;;;0.82;0.32;;;;;;;;;;4957574;28;20027;-86
2022/07/13 08:49:04;;;;;;;0.65;0.43;;;;;;;;;;4957399;28;20126;-84
2022/07/13 08:51:34;;;;;;;2.50;0.63;;;;;;;;;;4965080;28;20062;-89
2022/07/13 08:54:04;;;;;;;1.65;1.17;;;;;;;;;;4957844;28;20035;-88
2022/07/13 08:56:33;;;;;;;19.02;0.90;;;;;;;;;;4949096;29;20031;-89
2022/07/13 08:58:59;;;;;;;1.10;0.68;;;;;;;;;;4957099;28;20035;-88
2022/07/13 09:01:27;;;;;;;1.45;0.43;;;;;;;;;;4960002;28;20026;-85
2022/07/13 09:07:14;;;;;;;0.68;0.68;;;;;;;;;;4975155;28;20038;-88
2022/07/13 09:09:40;;;;;;;0.43;0.43;;;;;;;;;;4958348;28;20376;-86
2022/07/13 09:12:08;;;;;;;2.05;0.60;;;;;;;;;;4953776;28;20069;-83
2022/07/13 09:14:34;;;;;;;1.00;0.63;;;;;;;;;;4974487;28;20100;-83
2022/07/13 09:17:00;;;;;;;0.65;0.63;;;;;;;;;;4975649;28;20429;-82
2022/07/13 09:19:35;;;;;;;0.70;0.60;;;;;;;;;;4948374;28;20027;-85
2022/07/13 09:22:18;;;;;;;1.23;0.50;;;;;;;;;;4959531;28;20054;-84
2022/07/13 09:24:48;;;;;;;1.20;0.60;;;;;;;;;;4977272;28;20022;-86
2022/07/13 09:27:15;;;;;;;1.20;0.80;;;;;;;;;;4943222;28;20019;-85
2022/07/13 09:29:45;;;;;;;1.08;0.60;;;;;;;;;;4952832;28;20127;-86
2022/07/13 09:32:14;;;;;;;0.80;0.52;;;;;;;;;;4958536;28;20027;-87
2022/07/13 09:34:53;;;;;;;2.20;1.25;;;;;;;;;;4959635;28;20121;-82
2022/07/13 09:37:27;;;;;;;1.30;0.77;;;;;;;;;;4956397;28;20057;-86
2022/07/13 09:40:06;;;;;;;0.70;0.68;;;;;;;;;;4928912;28;20047;-87
2022/07/13 09:42:37;;;;;;;1.27;1.02;;;;;;;;;;4935905;29;20495;-85
2022/07/13 09:47:55;;;;;;;0.40;0.30;;;;;;;;;;4958516;28;20105;-87
2022/07/13 09:50:22;;;;;;;1.85;0.75;;;;;;;;;;4926998;29;20029;-88
2022/07/13 09:52:49;;;;;;;0.80;0.80;;;;;;;;;;4936185;29;20051;-85
2022/07/13 09:55:24;;;;;;;1.65;1.02;;;;;;;;;;4945153;28;20027;-84
2022/07/13 09:57:56;;;;;;;0.85;0.57;;;;;;;;;;4933638;28;20042;-85
2022/07/13 10:00:22;;;;;;;0.60;0.60;;;;;;;;;;4942313;28;20030;-87
2022/07/13 10:02:50;;;;;;;1.35;0.77;;;;;;;;;;4939359;29;20035;-85
2022/07/13 10:05:18;;;;;;;0.68;0.68;;;;;;;;;;4955452;28;20023;-86
2022/07/13 10:07:49;;;;;;;9.82;1.10;;;;;;;;;;4956953;28;20097;-86
2022/07/13 10:10:15;;;;;;;0.98;0.70;;;;;;;;;;4941907;28;20058;-85
2022/07/13 10:12:42;;;;;;;0.70;0.70;;;;;;;;;;4954682;28;20042;-82
2022/07/13 10:15:09;;;;;;;0.60;0.60;;;;;;;;;;4962350;28;20035;-86
2022/07/13 10:17:34;;;;;;;0.52;0.45;;;;;;;;;;4973414;28;20428;-89
2022/07/13 10:20:15;;;;;;;0.40;0.35;;;;;;;;;;4947939;28;20159;-86
2022/07/13 10:22:45;;;;;;;2.17;0.70;;;;;;;;;;4958674;28;20035;-85
2022/07/13 10:25:14;;;;;;;0.45;0.45;;;;;;;;;;4969024;28;20034;-84
2022/07/13 10:27:42;;;;;;;0.60;0.35;;;;;;;;;;4953479;28;20034;-85
2022/07/13 10:30:22;;;;;;;16.55;11.18;;;;;;;;;;4958885;28;20439;-86
2022/07/13 10:32:48;;;;;;;1.77;1.33;;;;;;;;;;4957995;28;20067;-87
2022/07/13 10:35:16;;;;;;;1.15;0.95;;;;;;;;;;4963010;28;20142;-86
2022/07/13 10:37:58;;;;;;;1.08;0.80;;;;;;;;;;4961083;28;20407;-87
2022/07/13 10:41:09;;;;;;;0.98;0.70;;;;;;;;;;4979333;28;20031;-88
2022/07/13 10:43:35;;;;;;;1.88;1.02;;;;;;;;;;4979643;28;20030;-84
2022/07/13 10:46:00;;;;;;;0.70;0.70;;;;;;;;;;4953318;28;20030;-86
2022/07/13 10:48:26;;;;;;;0.70;0.60;;;;;;;;;;4963659;28;20054;-84
2022/07/13 10:50:58;;;;;;;1.67;0.73;;;;;;;;;;4979346;28;20088;-90
2022/07/13 10:53:42;;;;;;;0.70;0.57;;;;;;;;;;4978884;28;20098;-85
2022/07/13 10:56:20;;;;;;;1.13;0.50;;;;;;;;;;4978086;28;20034;-85
2022/07/13 10:58:47;;;;;;;0.80;0.50;;;;;;;;;;4973002;28;20074;-87
2022/07/13 11:01:33;;;;;;;0.95;0.60;;;;;;;;;;4957533;28;20042;-84
2022/07/13 11:03:59;;;;;;;0.47;0.47;;;;;;;;;;4977951;28;20032;-84
2022/07/13 11:06:24;;;;;;;0.30;0.30;;;;;;;;;;4961915;28;20101;-88
2022/07/13 11:09:11;;;;;;;0.80;0.80;;;;;;;;;;4959735;28;20105;-83
2022/07/13 11:12:18;;;;;;;0.90;0.82;;;;;;;;;;4987691;28;20160;-85
2022/07/13 11:14:45;;;;;;;0.70;0.70;;;;;;;;;;4953786;28;20038;-85
2022/07/13 11:17:18;;;;;;;2.35;1.25;;;;;;;;;;4961135;28;20117;-86
2022/07/13 11:19:54;;;;;;;5.70;3.03;;;;;;;;;;4962026;28;20085;-88
2022/07/13 11:22:20;;;;;;;2.30;1.13;;;;;;;;;;4975042;28;20027;-88
2022/07/13 11:25:14;;;;;;;1.45;1.13;;;;;;;;;;4966949;28;20029;-86
2022/07/13 11:28:05;;;;;;;3.25;1.75;;;;;;;;;;4980457;28;20377;-87
2022/07/13 11:30:34;;;;;;;1.10;0.43;;;;;;;;;;4974809;28;20027;-84
2022/07/13 11:33:00;;;;;;;0.50;0.50;;;;;;;;;;4950990;28;20050;-87
2022/07/13 11:35:26;;;;;;;0.38;0.30;;;;;;;;;;4958692;28;20046;-86
2022/07/13 11:38:02;;;;;;;0.50;0.50;;;;;;;;;;4947842;28;20102;-84
2022/07/13 11:40:31;;;;;;;0.55;0.55;;;;;;;;;;4971672;28;20027;-83
2022/07/13 11:43:01;;;;;;;0.50;0.50;;;;;;;;;;4945277;28;20030;-83
2022/07/13 11:45:33;;;;;;;0.85;0.60;;;;;;;;;;4974471;28;20023;-83
2022/07/13 11:48:00;;;;;;;1.88;0.98;;;;;;;;;;4971681;28;20022;-82
2022/07/13 11:50:39;;;;;;;6.13;0.40;;;;;;;;;;4960944;28;20031;-81
2022/07/13 11:53:05;;;;;;;0.80;0.63;;;;;;;;;;4977061;28;20125;-83
2022/07/13 11:55:32;;;;;;;0.73;0.45;;;;;;;;;;4959951;28;20438;-82
2022/07/13 11:58:01;;;;;;;0.45;0.45;;;;;;;;;;4976925;28;20034;-82
2022/07/13 12:00:32;;;;;;;1.02;0.73;;;;;;;;;;4954259;28;20046;-83
2022/07/13 12:02:59;;;;;;;1.07;0.97;;;;;;;;;;4954698;28;20075;-81
2022/07/13 12:05:26;;;;;;;1.38;1.10;;;;;;;;;;4977095;28;20301;-82
2022/07/13 12:08:04;;;;;;;1.05;0.70;;;;;;;;;;4960991;28;20046;-81
2022/07/13 12:10:35;;;;;;;0.98;0.60;;;;;;;;;;4942931;28;20439;-81
2022/07/13 12:13:04;;;;;;;0.45;0.45;;;;;;;;;;4975887;28;20101;-82
2022/07/13 12:15:29;;;;;;;0.20;0.20;;;;;;;;;;4960223;28;20121;-82
2022/07/13 12:17:58;;;;;;;0.32;0.32;;;;;;;;;;4978088;28;20042;-82
2022/07/13 12:20:26;;;;;;;1.45;0.77;;;;;;;;;;4944218;28;20050;-83
2022/07/13 12:22:54;;;;;;;1.17;0.98;;;;;;;;;;4959769;28;20055;-82
2022/07/13 12:25:22;;;;;;;0.50;0.50;;;;;;;;;;4976654;28;20449;-83
2022/07/13 12:27:53;;;;;;;0.47;0.47;;;;;;;;;;4976593;28;20037;-82
2022/07/13 12:30:19;;;;;;;1.63;0.88;;;;;;;;;;4960522;28;20041;-82
2022/07/13 12:33:03;;;;;;;1.13;1.02;;;;;;;;;;4960236;28;20031;-83
2022/07/13 12:35:40;;;;;;;0.75;0.75;;;;;;;;;;4975666;28;20489;-82
2022/07/13 12:38:08;;;;;;;1.70;1.00;;;;;;;;;;4959787;28;20035;-83
2022/07/13 12:40:53;;;;;;;0.82;0.70;;;;;;;;;;4960245;28;20034;-82
2022/07/13 12:43:19;;;;;;;1.27;1.00;;;;;;;;;;4957691;28;20038;-82
2022/07/13 12:45:58;;;;;;;1.10;0.95;;;;;;;;;;4974982;28;20420;-81
2022/07/13 12:48:25;;;;;;;0.70;0.68;;;;;;;;;;4970009;28;20023;-81
2022/07/13 12:51:08;;;;;;;0.45;0.45;;;;;;;;;;4950645;28;20104;-81
2022/07/13 12:53:58;;;;;;;1.05;0.85;;;;;;;;;;4962743;28;20031;-85
2022/07/13 12:56:26;;;;;;;1.27;0.60;;;;;;;;;;4960111;28;20038;-83
2022/07/13 12:58:54;;;;;;;1.77;1.38;;;;;;;;;;4959618;28;20352;-82
2022/07/13 13:01:29;;;;;;;0.55;0.55;;;;;;;;;;4955850;28;20365;-82
2022/07/13 13:03:56;;;;;;;0.40;0.40;;;;;;;;;;4976590;28;20034;-81
2022/07/13 13:06:21;;;;;;;0.45;0.38;;;;;;;;;;4971013;28;20015;-81
2022/07/13 13:08:49;;;;;;;0.55;0.40;;;;;;;;;;4974201;28;20039;-84
2022/07/13 13:11:14;;;;;;;0.95;0.68;;;;;;;;;;4959658;28;20022;-86
2022/07/13 13:13:40;;;;;;;2.63;1.08;;;;;;;;;;4955837;28;20023;-83
2022/07/13 13:16:05;;;;;;;0.55;0.55;;;;;;;;;;4958790;28;20118;-82
2022/07/13 13:18:33;;;;;;;0.80;0.80;;;;;;;;;;4959803;28;20051;-82
2022/07/13 13:21:18;;;;;;;0.63;0.57;;;;;;;;;;5125828;27;20399;-83
2022/07/13 13:23:43;;;;;;;0.70;0.57;;;;;;;;;;5132564;27;20108;-84
2022/07/13 13:26:09;;;;;;;0.60;0.60;;;;;;;;;;5118406;27;20020;-82
2022/07/13 13:30:43;;;;;;;2.28;1.10;;;;;;;;;;5098735;28;20371;-84
2022/07/13 13:31:20;;;;;;;2.20;0.93;;;;;;;;;;5121963;28;20508;-83
2022/07/13 13:33:45;;;;;;;0.55;0.52;;;;;;;;;;5111662;28;20055;-85
2022/07/13 13:36:15;;;;;;;0.80;0.80;;;;;;;;;;5112973;28;20417;-86
2022/07/13 13:38:43;;;;;;;0.82;0.80;;;;;;;;;;5112152;28;20328;-83
2022/07/13 13:41:11;;;;;;;9.40;2.92;;;;;;;;;;5094562;28;20028;-85
2022/07/13 13:43:39;;;;;;;0.35;0.35;;;;;;;;;;5110243;28;20380;-83
2022/07/13 13:46:06;;;;;;;0.70;0.70;;;;;;;;;;5119266;28;20027;-83
2022/07/13 13:48:34;;;;;;;0.73;0.47;;;;;;;;;;5119059;28;20043;-84
2022/07/13 13:51:02;;;;;;;0.40;0.40;;;;;;;;;;5120561;28;20030;-86
2022/07/13 13:53:27;;;;;;;0.80;0.60;;;;;;;;;;5130755;28;20098;-82
2022/07/13 13:55:55;;;;;;;0.80;0.57;;;;;;;;;;5125040;27;20112;-83
2022/07/13 13:58:20;;;;;;;0.60;0.60;;;;;;;;;;5129046;27;20114;-83
2022/07/13 14:00:48;;;;;;;8.73;5.63;;;;;;;;;;5122839;27;20470;-85
2022/07/13 14:03:13;;;;;;;2.25;1.30;;;;;;;;;;5107430;27;20429;-82
2022/07/13 14:05:38;;;;;;;1.30;1.08;;;;;;;;;;5117945;28;20111;-83
2022/07/13 14:08:04;;;;;;;2.20;1.02;;;;;;;;;;5112835;27;20016;-82
2022/07/13 14:10:29;;;;;;;1.65;1.02;;;;;;;;;;5118945;28;20032;-83
2022/07/13 14:12:55;;;;;;;0.85;0.77;;;;;;;;;;5116752;27;20020;-83
2022/07/13 14:15:21;;;;;;;3.03;0.90;;;;;;;;;;5109009;28;20375;-83
2022/07/13 14:17:48;;;;;;;0.35;0.35;;;;;;;;;;5118514;28;20126;-83
2022/07/13 14:20:14;;;;;;;1.52;0.90;;;;;;;;;;5118128;28;20019;-80
2022/07/13 14:22:39;;;;;;;0.85;0.40;;;;;;;;;;5122269;28;20428;-81
2022/07/13 14:25:08;;;;;;;0.55;0.55;;;;;;;;;;5111372;28;20028;-82
2022/07/13 14:27:36;;;;;;;1.10;0.85;;;;;;;;;;5115903;28;20063;-82
2022/07/13 14:30:05;;;;;;;1.05;0.85;;;;;;;;;;5112938;27;20016;-82
2022/07/13 14:32:31;;;;;;;2.45;0.65;;;;;;;;;;5097312;28;20135;-83
2022/07/13 14:34:56;;;;;;;0.40;0.28;;;;;;;;;;5106868;28;20472;-82
2022/07/13 14:37:23;;;;;;;1.25;0.70;;;;;;;;;;5112603;28;20352;-82
2022/07/13 14:39:49;;;;;;;0.98;0.70;;;;;;;;;;5103226;28;20020;-83
2022/07/13 14:42:15;;;;;;;3.25;0.80;;;;;;;;;;5096243;28;20421;-82
2022/07/13 14:44:43;;;;;;;1.48;0.88;;;;;;;;;;5104347;28;20024;-83
2022/07/13 14:47:08;;;;;;;0.70;0.60;;;;;;;;;;5103268;28;20318;-83
2022/07/13 14:49:34;;;;;;;0.77;0.60;;;;;;;;;;5097390;28;20076;-82
2022/07/13 14:52:00;;;;;;;0.75;0.75;;;;;;;;;;5092248;28;20020;-83
2022/07/13 14:54:26;;;;;;;8.75;1.65;;;;;;;;;;5116714;28;20015;-83
2022/07/13 14:56:54;;;;;;;1.42;0.63;;;;;;;;;;5103261;28;20052;-83
2022/07/13 14:59:20;;;;;;;0.50;0.50;;;;;;;;;;5095390;28;20452;-83